createdAt,value
2023-04-04T00:02:00.822Z,3.65
2023-04-04T00:04:28.703Z,2.90
2023-04-04T00:06:56.305Z,3.60
2023-04-04T00:09:25.148Z,2.70
2023-04-04T00:11:52.716Z,3.25
2023-04-04T00:14:20.280Z,3.50
2023-04-04T00:16:48.187Z,3.00
2023-04-04T00:19:18.273Z,3.53
2023-04-04T00:21:46.751Z,3.15
2023-04-04T00:24:14.447Z,2.90
2023-04-04T00:26:43.377Z,2.65
2023-04-04T00:29:11.156Z,3.40
2023-04-04T00:31:38.805Z,3.38
2023-04-04T00:34:06.936Z,2.58
2023-04-04T00:36:34.431Z,3.55
2023-04-04T00:39:02.144Z,3.28
2023-04-04T00:41:29.906Z,3.25
2023-04-04T00:43:58.920Z,4.00
2023-04-04T00:46:28.376Z,3.88
2023-04-04T00:48:55.924Z,3.28
2023-04-04T00:51:23.397Z,3.00
2023-04-04T00:53:51.933Z,3.00
2023-04-04T00:56:20.450Z,3.45
2023-04-04T00:58:48.426Z,3.10
2023-04-04T01:01:21.391Z,3.42
2023-04-04T01:03:48.958Z,3.13
2023-04-04T01:06:16.967Z,3.75
2023-04-04T01:08:44.685Z,3.05
2023-04-04T01:11:12.802Z,3.53
2023-04-04T01:13:40.698Z,4.00
2023-04-04T01:16:08.717Z,3.90
2023-04-04T01:18:38.289Z,3.40
2023-04-04T01:21:10.039Z,4.35
2023-04-04T01:23:44.657Z,3.85
2023-04-04T01:26:13.590Z,3.92
2023-04-04T01:28:41.264Z,4.15
2023-04-04T01:31:10.492Z,3.80
2023-04-04T01:33:39.154Z,4.22
2023-04-04T01:36:12.831Z,3.95
2023-04-04T01:38:44.056Z,3.88
2023-04-04T01:41:14.807Z,3.75
2023-04-04T01:43:45.452Z,4.10
2023-04-04T01:46:15.669Z,3.92
2023-04-04T01:48:43.193Z,3.42
2023-04-04T01:51:10.775Z,4.20
2023-04-04T01:53:38.636Z,3.95
2023-04-04T01:56:06.549Z,4.00
2023-04-04T01:58:35.526Z,3.92
2023-04-04T02:01:03.060Z,4.55
2023-04-04T02:03:30.987Z,4.10
2023-04-04T02:05:58.561Z,3.97
2023-04-04T02:08:26.272Z,4.32
2023-04-04T02:10:53.773Z,4.15
2023-04-04T02:13:21.669Z,4.25
2023-04-04T02:15:51.772Z,4.78
2023-04-04T02:18:19.456Z,4.93
2023-04-04T02:20:47.023Z,5.10
2023-04-04T02:23:14.560Z,5.00
2023-04-04T02:25:42.029Z,4.60
2023-04-04T02:28:09.592Z,4.90
2023-04-04T02:30:37.237Z,4.38
2023-04-04T02:33:06.199Z,4.90
2023-04-04T02:35:33.802Z,4.15
2023-04-04T02:38:01.676Z,5.03
2023-04-04T02:40:29.232Z,5.38
2023-04-04T02:42:56.920Z,5.60
2023-04-04T02:45:24.432Z,4.53
2023-04-04T02:47:52.985Z,5.13
2023-04-04T02:50:22.005Z,5.22
2023-04-04T02:52:49.564Z,5.13
2023-04-04T02:55:17.420Z,5.10
2023-04-04T02:57:51.895Z,4.38
2023-04-04T03:00:20.259Z,4.85
2023-04-04T03:02:54.072Z,4.55
2023-04-04T03:05:23.141Z,4.70
2023-04-04T03:07:54.085Z,5.28
2023-04-04T03:10:21.601Z,4.75
2023-04-04T03:12:49.176Z,4.45
2023-04-04T03:15:16.809Z,3.78
2023-04-04T03:17:44.920Z,4.60
2023-04-04T03:20:13.278Z,4.53
2023-04-04T03:22:42.233Z,4.45
2023-04-04T03:25:10.331Z,4.60
2023-04-04T03:27:39.791Z,4.90
2023-04-04T03:30:08.291Z,4.38
2023-04-04T03:32:37.226Z,4.20
2023-04-04T03:35:04.997Z,4.28
2023-04-04T03:37:32.638Z,4.28
2023-04-04T03:40:01.625Z,3.58
2023-04-04T03:42:29.143Z,5.03
2023-04-04T03:44:56.658Z,4.45
2023-04-04T03:47:24.621Z,5.10
2023-04-04T03:49:52.748Z,4.45
2023-04-04T03:52:20.351Z,5.10
2023-04-04T03:54:47.954Z,5.07
2023-04-04T03:57:16.801Z,3.88
2023-04-04T03:59:44.254Z,4.88
2023-04-04T04:02:11.956Z,4.45
2023-04-04T04:04:39.651Z,4.15
2023-04-04T04:07:07.271Z,4.05
2023-04-04T04:09:35.413Z,4.00
2023-04-04T04:12:03.041Z,3.90
2023-04-04T04:14:31.966Z,5.18
2023-04-04T04:16:59.535Z,3.72
2023-04-04T04:19:27.156Z,3.53
2023-04-04T04:21:54.758Z,4.78
2023-04-04T04:24:23.313Z,3.85
2023-04-04T04:26:50.881Z,4.22
2023-04-04T04:29:18.517Z,4.57
2023-04-04T04:31:47.414Z,4.50
2023-04-04T04:34:15.342Z,4.57
2023-04-04T04:36:42.923Z,4.32
2023-04-04T04:39:10.956Z,4.68
2023-04-04T04:41:38.624Z,4.80
2023-04-04T04:44:06.897Z,4.38
2023-04-04T04:46:34.821Z,3.90
2023-04-04T04:49:04.048Z,3.83
2023-04-04T04:51:32.064Z,4.57
2023-04-04T04:53:59.688Z,5.13
2023-04-04T04:56:27.351Z,4.03
2023-04-04T04:58:54.929Z,4.00
2023-04-04T05:01:22.770Z,4.90
2023-04-04T05:03:52.041Z,4.40
2023-04-04T05:06:22.902Z,4.57
2023-04-04T05:08:50.541Z,4.45
2023-04-04T05:11:18.042Z,4.07
2023-04-04T05:13:46.329Z,4.32
2023-04-04T05:16:14.055Z,4.32
2023-04-04T05:18:41.806Z,4.38
2023-04-04T05:21:09.353Z,4.22
2023-04-04T05:23:38.477Z,4.30
2023-04-04T05:26:06.494Z,4.05
2023-04-04T05:28:34.773Z,5.00
2023-04-04T05:33:56.742Z,4.22
2023-04-04T05:36:25.410Z,4.95
2023-04-04T05:38:54.451Z,4.95
2023-04-04T05:41:23.978Z,4.03
2023-04-04T05:43:51.530Z,4.72
2023-04-04T05:46:19.081Z,4.03
2023-04-04T05:48:47.803Z,4.32
2023-04-04T05:51:15.718Z,4.10
2023-04-04T05:53:45.552Z,4.28
2023-04-04T05:59:05.622Z,4.53
2023-04-04T06:01:33.190Z,3.85
2023-04-04T06:04:01.332Z,4.15
2023-04-04T06:06:29.014Z,3.67
2023-04-04T06:08:56.735Z,3.85
2023-04-04T06:11:26.325Z,4.20
2023-04-04T06:13:55.252Z,3.83
2023-04-04T06:16:23.403Z,4.75
2023-04-04T06:18:51.032Z,4.57
2023-04-04T06:21:19.441Z,4.63
2023-04-04T06:23:46.943Z,4.72
2023-04-04T06:26:14.967Z,4.53
2023-04-04T06:28:51.204Z,3.97
2023-04-04T06:31:18.953Z,4.15
2023-04-04T06:33:53.021Z,4.50
2023-04-04T06:36:21.240Z,3.83
2023-04-04T06:38:48.898Z,4.32
2023-04-04T06:41:17.017Z,4.13
2023-04-04T06:43:46.674Z,4.95
2023-04-04T06:46:15.759Z,4.20
2023-04-04T06:48:43.521Z,4.25
2023-04-04T06:51:11.351Z,4.53
2023-04-04T06:53:40.702Z,4.43
2023-04-04T06:56:08.888Z,5.43
2023-04-04T06:58:39.015Z,4.80
2023-04-04T07:01:07.219Z,4.93
2023-04-04T07:06:29.949Z,3.47
2023-04-04T07:08:57.617Z,4.35
2023-04-04T07:11:51.006Z,4.20
2023-04-04T07:14:20.527Z,3.85
2023-04-04T07:16:49.110Z,3.88
2023-04-04T07:19:18.088Z,4.50
2023-04-04T07:21:45.865Z,4.82
2023-04-04T07:24:13.403Z,4.47
2023-04-04T07:26:42.029Z,4.47
2023-04-04T07:29:09.737Z,5.15
2023-04-04T07:31:37.400Z,4.45
2023-04-04T07:34:05.255Z,5.18
2023-04-04T07:36:34.120Z,4.82
2023-04-04T07:39:01.682Z,5.63
2023-04-04T07:41:29.192Z,4.95
2023-04-04T07:43:57.081Z,5.05
2023-04-04T07:46:24.709Z,4.72
2023-04-04T07:48:52.247Z,5.15
2023-04-04T07:51:24.106Z,4.90
2023-04-04T07:53:53.034Z,5.45
2023-04-04T07:56:21.895Z,4.97
2023-04-04T07:58:49.488Z,5.53
2023-04-04T08:01:17.077Z,3.63
2023-04-04T08:03:45.079Z,4.78
2023-04-04T08:06:13.889Z,5.70
2023-04-04T08:08:43.011Z,5.68
2023-04-04T08:11:12.384Z,5.55
2023-04-04T08:13:40.100Z,5.13
2023-04-04T08:16:07.937Z,5.63
2023-04-04T08:21:27.940Z,6.70
2023-04-04T08:24:18.030Z,5.32
2023-04-04T08:36:00.260Z,5.60
2023-04-04T08:38:27.893Z,4.65
2023-04-04T08:40:55.463Z,5.60
2023-04-04T08:43:24.663Z,5.00
2023-04-04T08:45:54.696Z,4.65
2023-04-04T08:48:24.094Z,5.32
2023-04-04T08:50:51.722Z,5.00
2023-04-04T08:53:21.082Z,6.03
2023-04-04T08:55:48.930Z,5.10
2023-04-04T08:58:17.496Z,4.78
2023-04-04T09:00:45.086Z,6.95
2023-04-04T09:03:16.249Z,4.82
2023-04-04T09:05:45.075Z,5.18
2023-04-04T09:08:13.775Z,4.63
2023-04-04T09:10:44.284Z,5.40
2023-04-04T09:13:16.179Z,5.68
2023-04-04T09:15:47.110Z,4.47
2023-04-04T09:18:14.965Z,4.47
2023-04-04T09:20:43.310Z,4.78
2023-04-04T09:23:12.653Z,4.57
2023-04-04T09:25:56.211Z,4.80
2023-04-04T09:28:28.955Z,4.28
2023-04-04T09:30:56.600Z,5.43
2023-04-04T09:33:27.826Z,4.22
2023-04-04T09:35:56.514Z,5.43
2023-04-04T09:38:25.596Z,4.20
2023-04-04T09:40:55.678Z,4.70
2023-04-04T09:43:24.261Z,5.22
2023-04-04T09:45:51.966Z,5.20
2023-04-04T09:48:27.277Z,4.72
2023-04-04T09:50:54.940Z,5.30
2023-04-04T09:53:22.496Z,5.05
2023-04-04T09:59:00.711Z,5.13
2023-04-04T10:01:31.504Z,4.70
2023-04-04T10:03:59.470Z,4.93
2023-04-04T10:06:28.115Z,5.50
2023-04-04T10:09:02.278Z,4.97
2023-04-04T10:11:32.470Z,5.00
2023-04-04T10:14:00.639Z,5.63
2023-04-04T10:16:29.631Z,5.30
2023-04-04T10:18:57.308Z,5.65
2023-04-04T10:21:32.631Z,5.37
2023-04-04T10:24:03.273Z,5.90
2023-04-04T10:26:32.113Z,5.63
2023-04-04T10:29:00.583Z,5.90
2023-04-04T10:31:28.536Z,5.60
2023-04-04T10:34:02.679Z,5.57
2023-04-04T10:36:32.686Z,6.25
2023-04-04T10:39:06.722Z,5.85
2023-04-04T10:41:36.635Z,5.55
2023-04-04T10:44:38.788Z,5.45
2023-04-04T10:47:10.677Z,5.47
2023-04-04T10:49:48.027Z,5.38
2023-04-04T10:52:16.686Z,5.28
2023-04-04T10:54:44.933Z,5.00
2023-04-04T10:57:14.711Z,5.05
2023-04-04T11:00:16.581Z,4.93
2023-04-04T11:02:48.766Z,5.78
2023-04-04T11:05:23.844Z,5.40
2023-04-04T11:08:08.057Z,5.13
2023-04-04T11:10:36.828Z,5.78
2023-04-04T11:13:14.380Z,5.82
2023-04-04T11:15:53.095Z,5.22
2023-04-04T11:18:31.966Z,4.85
2023-04-04T11:21:02.438Z,4.82
2023-04-04T11:23:39.937Z,4.88
2023-04-04T11:26:08.476Z,5.28
2023-04-04T11:28:47.178Z,5.57
2023-04-04T11:31:29.839Z,5.10
2023-04-04T11:34:01.913Z,4.97
2023-04-04T11:36:47.821Z,5.43
2023-04-04T11:39:17.005Z,4.72
2023-04-04T11:41:45.035Z,5.00
2023-04-04T11:44:14.152Z,4.30
2023-04-04T11:46:42.261Z,5.07
2023-04-04T11:49:11.456Z,4.75
2023-04-04T11:51:40.825Z,4.53
2023-04-04T11:54:16.014Z,5.18
2023-04-04T11:56:44.402Z,4.43
2023-04-04T11:59:12.176Z,4.32
2023-04-04T12:01:41.615Z,4.88
2023-04-04T12:04:10.524Z,4.70
2023-04-04T12:06:38.331Z,4.18
2023-04-04T12:09:06.812Z,4.38
2023-04-04T12:11:35.351Z,4.28
2023-04-04T12:14:02.995Z,4.38
2023-04-04T12:16:30.953Z,4.30
2023-04-04T12:19:02.366Z,3.63
2023-04-04T12:21:55.501Z,4.35
2023-04-04T12:24:48.076Z,3.10
2023-04-04T12:27:16.842Z,3.80
2023-04-04T12:29:47.588Z,3.78
2023-04-04T12:32:15.878Z,3.78
2023-04-04T12:37:37.818Z,4.20
2023-04-04T12:40:07.429Z,4.00
2023-04-04T12:42:35.610Z,3.63
2023-04-04T12:47:57.993Z,4.15
2023-04-04T12:50:28.458Z,4.00
2023-04-04T12:53:13.496Z,3.88
2023-04-04T12:55:46.805Z,3.75
2023-04-04T12:58:16.227Z,3.83
2023-04-04T13:00:44.004Z,3.65
2023-04-04T13:06:11.979Z,3.60
2023-04-04T13:08:50.024Z,3.30
2023-04-04T13:11:19.862Z,3.70
2023-04-04T13:16:16.011Z,3.45
2023-04-04T13:18:44.439Z,3.65
2023-04-04T13:21:37.719Z,3.47
2023-04-04T13:24:08.885Z,3.05
2023-04-04T13:26:36.446Z,3.10
2023-04-04T13:29:06.269Z,3.63
2023-04-04T13:31:34.053Z,3.28
2023-04-04T13:34:01.598Z,3.13
2023-04-04T13:36:31.475Z,3.63
2023-04-04T13:38:59.141Z,3.10
2023-04-04T13:41:29.362Z,3.25
2023-04-04T13:43:56.920Z,3.50
2023-04-04T13:46:24.538Z,3.15
2023-04-04T13:48:52.123Z,3.03
2023-04-04T13:51:19.681Z,3.83
2023-04-04T13:53:53.046Z,2.88
2023-04-04T13:56:22.197Z,3.13
2023-04-04T13:58:50.929Z,3.20
2023-04-04T14:04:22.725Z,3.63
2023-04-04T14:06:51.327Z,3.08
2023-04-04T14:09:21.411Z,3.35
2023-04-04T14:11:49.024Z,3.35
2023-04-04T14:14:16.965Z,3.05
2023-04-04T14:16:44.641Z,3.45
2023-04-04T14:19:12.203Z,3.63
2023-04-04T14:21:39.757Z,3.30
2023-04-04T14:24:07.551Z,3.50
2023-04-04T14:26:37.918Z,3.88
2023-04-04T14:29:05.607Z,3.17
2023-04-04T14:31:35.156Z,3.75
2023-04-04T14:34:04.468Z,3.38
2023-04-04T14:36:32.239Z,3.63
2023-04-04T14:38:59.881Z,3.58
2023-04-04T14:41:27.592Z,4.20
2023-04-04T14:43:56.555Z,3.97
2023-04-04T14:46:25.169Z,3.42
2023-04-04T14:48:53.288Z,3.55
2023-04-04T14:51:21.019Z,4.47
2023-04-04T14:53:48.856Z,3.83
2023-04-04T14:56:16.659Z,3.92
2023-04-04T14:58:44.253Z,3.58
2023-04-04T15:01:13.981Z,3.33
2023-04-04T15:03:41.508Z,3.30
2023-04-04T15:06:09.182Z,3.80
2023-04-04T15:08:36.738Z,4.45
2023-04-04T15:11:04.381Z,3.67
2023-04-04T15:13:32.262Z,3.78
2023-04-04T15:16:01.610Z,3.92
2023-04-04T15:18:30.511Z,3.85
2023-04-04T15:20:58.609Z,4.07
2023-04-04T15:23:26.297Z,3.83
2023-04-04T15:25:53.795Z,3.50
2023-04-04T15:28:21.279Z,3.78
2023-04-04T15:30:51.384Z,3.75
2023-04-04T15:33:19.109Z,4.05
2023-04-04T15:35:48.398Z,3.60
2023-04-04T15:38:17.951Z,4.28
2023-04-04T15:40:45.917Z,4.13
2023-04-04T15:43:16.756Z,4.30
2023-04-04T15:45:48.274Z,4.22
2023-04-04T15:48:16.509Z,4.20
2023-04-04T15:50:47.692Z,4.38
2023-04-04T15:53:21.903Z,3.70
2023-04-04T15:58:48.947Z,3.80
2023-04-04T16:01:16.695Z,3.72
2023-04-04T16:03:44.985Z,3.75
2023-04-04T16:09:06.569Z,4.18
2023-04-04T16:11:36.193Z,3.75
2023-04-04T16:14:17.557Z,4.13
2023-04-04T16:16:45.057Z,4.15
2023-04-04T16:19:15.085Z,4.00
2023-04-04T16:21:42.778Z,4.13
2023-04-04T16:27:06.640Z,4.27
2023-04-04T16:29:35.899Z,4.43
2023-04-04T16:32:05.789Z,3.97
2023-04-04T16:34:33.406Z,4.10
2023-04-04T16:37:01.076Z,4.10
2023-04-04T16:39:28.764Z,4.43
2023-04-04T16:44:50.060Z,3.95
2023-04-04T16:47:17.616Z,3.30
2023-04-04T16:49:47.180Z,3.88
2023-04-04T16:52:14.914Z,3.63
2023-04-04T16:54:42.740Z,3.70
2023-04-04T16:57:10.367Z,4.45
2023-04-04T16:59:37.926Z,3.80
2023-04-04T17:04:52.494Z,4.32
2023-04-04T17:07:20.366Z,4.82
2023-04-04T17:09:48.851Z,5.45
2023-04-04T17:12:16.570Z,5.07
2023-04-04T17:14:44.551Z,4.85
2023-04-04T17:17:12.148Z,4.32
2023-04-04T17:19:39.806Z,4.70
2023-04-04T17:22:08.792Z,4.90
2023-04-04T17:24:36.281Z,4.85
2023-04-04T17:27:03.968Z,4.90
2023-04-04T17:29:31.803Z,5.88
2023-04-04T17:31:59.907Z,4.32
2023-04-04T17:34:27.684Z,4.35
2023-04-04T17:36:56.186Z,5.10
2023-04-04T17:39:25.131Z,4.88
2023-04-04T17:41:53.129Z,5.50
2023-04-04T17:44:21.413Z,5.88
2023-04-04T17:46:49.014Z,5.80
2023-04-04T17:49:19.816Z,5.07
2023-04-04T17:51:48.585Z,5.25
2023-04-04T17:54:16.368Z,6.38
2023-04-04T17:56:45.505Z,5.72
2023-04-04T17:59:13.682Z,5.82
2023-04-04T18:01:42.721Z,5.60
2023-04-04T18:04:13.079Z,5.70
2023-04-04T18:06:41.794Z,5.63
2023-04-04T18:09:10.234Z,5.95
2023-04-04T18:11:38.168Z,5.82
2023-04-04T18:14:07.172Z,6.20
2023-04-04T18:16:39.849Z,5.97
2023-04-04T18:19:10.336Z,6.05
2023-04-04T18:21:38.456Z,5.70
2023-04-04T18:24:07.528Z,6.80
2023-04-04T18:26:35.141Z,6.30
2023-04-04T18:29:03.024Z,6.65
2023-04-04T18:31:32.068Z,6.38
2023-04-04T18:33:59.638Z,6.45
2023-04-04T18:36:27.976Z,6.78
2023-04-04T18:38:55.433Z,6.60
2023-04-04T18:41:23.357Z,7.30
2023-04-04T18:43:50.950Z,8.27
2023-04-04T18:46:18.655Z,7.82
2023-04-04T18:48:47.646Z,7.88
2023-04-04T18:51:15.650Z,7.30
2023-04-04T18:53:43.182Z,6.55
2023-04-04T18:56:13.577Z,7.90
2023-04-04T18:58:44.436Z,8.35
2023-04-04T19:01:12.709Z,7.00
2023-04-04T19:03:45.021Z,7.30
2023-04-04T19:06:14.308Z,7.55
2023-04-04T19:08:44.261Z,6.90
2023-04-04T19:14:04.478Z,6.03
2023-04-04T19:16:32.048Z,6.72
2023-04-04T19:18:59.554Z,7.45
2023-04-04T19:21:29.647Z,7.38
2023-04-04T19:23:57.366Z,6.95
2023-04-04T19:26:24.856Z,6.93
2023-04-04T19:32:13.836Z,7.03
2023-04-04T19:34:41.788Z,6.55
2023-04-04T19:37:10.778Z,7.03
2023-04-04T19:39:40.715Z,7.25
2023-04-04T19:42:11.504Z,7.55
2023-04-04T19:44:39.644Z,7.30
2023-04-04T19:47:07.705Z,7.85
2023-04-04T19:49:35.461Z,7.03
2023-04-04T19:52:04.397Z,8.00
2023-04-04T19:54:39.011Z,8.20
2023-04-04T19:57:08.708Z,6.90
2023-04-04T19:59:48.842Z,7.25
2023-04-04T20:02:36.201Z,7.32
2023-04-04T20:05:24.431Z,6.95
2023-04-04T20:07:51.966Z,8.25
2023-04-04T20:10:36.198Z,7.90
2023-04-04T20:13:28.452Z,7.70
2023-04-04T20:16:22.256Z,7.50
2023-04-04T20:18:50.006Z,6.40
2023-04-04T20:21:18.262Z,7.50
2023-04-04T20:23:47.907Z,7.28
2023-04-04T20:26:37.545Z,8.48
2023-04-04T20:29:06.863Z,7.05
2023-04-04T20:31:51.744Z,7.90
2023-04-04T20:34:33.524Z,7.13
2023-04-04T20:37:01.342Z,6.97
2023-04-04T20:39:36.724Z,8.20
2023-04-04T20:42:11.828Z,7.60
2023-04-04T20:47:43.132Z,7.88
2023-04-04T20:50:29.549Z,6.78
2023-04-04T20:53:00.534Z,7.43
2023-04-04T20:55:29.432Z,8.35
2023-04-04T20:58:01.976Z,8.00
2023-04-04T21:00:47.134Z,7.15
2023-04-04T21:03:24.196Z,8.40
2023-04-04T21:05:52.271Z,6.93
2023-04-04T21:08:35.857Z,7.50
2023-04-04T21:11:04.889Z,8.47
2023-04-04T21:13:34.475Z,7.07
2023-04-04T21:16:27.425Z,7.18
2023-04-04T21:19:24.387Z,7.45
2023-04-04T21:21:52.269Z,6.72
2023-04-04T21:24:19.800Z,6.65
2023-04-04T21:26:47.926Z,7.78
2023-04-04T21:29:21.707Z,6.13
2023-04-04T21:31:50.588Z,7.85
2023-04-04T21:34:19.704Z,7.03
2023-04-04T21:36:47.818Z,7.63
2023-04-04T21:39:16.041Z,7.43
2023-04-04T21:41:44.360Z,6.70
2023-04-04T21:44:13.620Z,7.60
2023-04-04T21:46:42.859Z,8.13
2023-04-04T21:49:10.992Z,6.78
2023-04-04T21:51:38.721Z,7.32
2023-04-04T21:54:06.252Z,7.90
2023-04-04T21:56:33.974Z,7.55
2023-04-04T21:59:02.217Z,6.72
2023-04-04T22:01:30.849Z,6.93
2023-04-04T22:03:59.955Z,7.40
2023-04-04T22:06:27.859Z,8.10
2023-04-04T22:08:56.083Z,7.43
2023-04-04T22:11:25.861Z,8.05
2023-04-04T22:19:59.287Z,7.45
2023-04-04T22:22:29.752Z,7.95
2023-04-04T22:25:03.590Z,8.15
2023-04-04T22:27:31.663Z,9.32
2023-04-04T22:29:59.149Z,7.65
2023-04-04T22:32:26.887Z,7.22
2023-04-04T22:34:55.732Z,8.10
2023-04-04T22:37:23.169Z,7.55
2023-04-04T22:39:50.970Z,7.50
2023-04-04T22:42:18.745Z,7.55
2023-04-04T22:44:47.536Z,8.60
2023-04-04T22:47:15.619Z,7.65
2023-04-04T22:49:51.173Z,7.30
2023-04-04T22:52:22.753Z,6.53
2023-04-04T22:54:50.318Z,7.13
2023-04-04T22:57:17.809Z,7.75
2023-04-04T22:59:45.465Z,7.38
2023-04-04T23:02:13.115Z,6.95
2023-04-04T23:04:40.744Z,7.63
2023-04-04T23:07:08.768Z,7.20
2023-04-04T23:09:38.194Z,6.65
2023-04-04T23:12:05.867Z,6.70
2023-04-04T23:14:38.780Z,7.25
2023-04-04T23:17:06.890Z,6.57
2023-04-04T23:19:34.429Z,8.02
2023-04-04T23:22:01.970Z,6.43
2023-04-04T23:24:29.495Z,6.15
2023-04-04T23:26:58.376Z,6.43
2023-04-04T23:29:26.239Z,6.05
2023-04-04T23:31:53.757Z,7.90
2023-04-04T23:34:21.521Z,6.55
2023-04-04T23:36:49.089Z,6.47
2023-04-04T23:39:16.642Z,5.82
2023-04-04T23:41:44.106Z,6.05
2023-04-04T23:44:13.710Z,6.45
2023-04-04T23:46:41.262Z,6.13
2023-04-04T23:49:09.366Z,6.55
2023-04-04T23:51:39.056Z,6.18
2023-04-04T23:54:06.978Z,6.00
2023-04-04T23:56:34.717Z,5.20
2023-04-04T23:59:02.604Z,6.03
